sensor_id;sensor_type;location;lat;lon;timestamp;pressure;altitude;pressure_sealevel;temperature;humidity
71057;BME280;58380;48.312;9.246;2022-08-06T06:36:34;94276.47;;;13.96;84.61
71057;BME280;58380;48.312;9.246;2022-08-06T06:39:23;94295.31;;;14.10;85.78
71057;BME280;58380;48.312;9.246;2022-08-06T06:42:06;94303.59;;;14.29;85.41
71057;BME280;58380;48.312;9.246;2022-08-06T06:44:41;94258.16;;;14.10;84.13
71057;BME280;58380;48.312;9.246;2022-08-06T06:47:20;94293.53;;;14.41;84.94
71057;BME280;58380;48.312;9.246;2022-08-06T06:49:59;94223.41;;;14.12;83.98
71057;BME280;58380;48.312;9.246;2022-08-06T06:52:41;94294.09;;;14.64;82.61
71057;BME280;58380;48.312;9.246;2022-08-06T06:55:19;94235.63;;;14.23;82.62
71057;BME280;58380;48.312;9.246;2022-08-06T06:57:55;94332.06;;;14.85;82.36
71057;BME280;58380;48.312;9.246;2022-08-06T07:00:30;94304.16;;;14.82;82.86
71057;BME280;58380;48.312;9.246;2022-08-06T07:03:03;94302.56;;;14.92;83.12
71057;BME280;58380;48.312;9.246;2022-08-06T07:05:36;94316.38;;;14.94;83.28
71057;BME280;58380;48.312;9.246;2022-08-06T07:08:11;94237.75;;;14.36;82.15
71057;BME280;58380;48.312;9.246;2022-08-06T07:10:43;94324.09;;;14.95;82.10
71057;BME280;58380;48.312;9.246;2022-08-06T07:13:14;94358.09;;;15.19;82.65
71057;BME280;58380;48.312;9.246;2022-08-06T07:15:47;94328.84;;;15.14;80.34
71057;BME280;58380;48.312;9.246;2022-08-06T07:18:18;94328.31;;;15.17;79.56
71057;BME280;58380;48.312;9.246;2022-08-06T07:20:49;94309.69;;;15.17;80.80
71057;BME280;58380;48.312;9.246;2022-08-06T07:23:21;94292.72;;;15.13;79.73
71057;BME280;58380;48.312;9.246;2022-08-06T07:25:52;94328.03;;;15.34;78.86
71057;BME280;58380;48.312;9.246;2022-08-06T07:28:24;94294.84;;;15.10;78.68
71057;BME280;58380;48.312;9.246;2022-08-06T07:30:55;94336.25;;;15.32;79.54
71057;BME280;58380;48.312;9.246;2022-08-06T07:33:26;94332.56;;;15.28;78.99
71057;BME280;58380;48.312;9.246;2022-08-06T07:35:57;94351.16;;;15.33;77.42
71057;BME280;58380;48.312;9.246;2022-08-06T07:38:31;94357.03;;;15.35;79.40
71057;BME280;58380;48.312;9.246;2022-08-06T07:41:04;94297.47;;;15.16;79.65
71057;BME280;58380;48.312;9.246;2022-08-06T07:43:38;94323.78;;;15.38;80.19
71057;BME280;58380;48.312;9.246;2022-08-06T07:46:14;94299.81;;;15.27;79.69
71057;BME280;58380;48.312;9.246;2022-08-06T07:48:51;94275.16;;;15.12;78.31
71057;BME280;58380;48.312;9.246;2022-08-06T07:51:27;94348.69;;;15.57;77.34
71057;BME280;58380;48.312;9.246;2022-08-06T07:54:00;94312.34;;;15.27;78.45
71057;BME280;58380;48.312;9.246;2022-08-06T07:56:30;94347.66;;;15.58;78.42
71057;BME280;58380;48.312;9.246;2022-08-06T07:59:00;94331.16;;;15.51;78.41
71057;BME280;58380;48.312;9.246;2022-08-06T08:01:32;94326.91;;;15.55;77.08
71057;BME280;58380;48.312;9.246;2022-08-06T08:04:01;94367.81;;;15.80;77.87
71057;BME280;58380;48.312;9.246;2022-08-06T08:07:00;94352.66;;;15.85;78.00
71057;BME280;58380;48.312;9.246;2022-08-06T08:09:33;94359.03;;;15.84;75.15
71057;BME280;58380;48.312;9.246;2022-08-06T08:12:05;94316.50;;;15.59;76.56
71057;BME280;58380;48.312;9.246;2022-08-06T08:14:35;94335.69;;;15.50;75.07
71057;BME280;58380;48.312;9.246;2022-08-06T08:17:05;94342.84;;;15.60;77.36
71057;BME280;58380;48.312;9.246;2022-08-06T08:19:34;94298.97;;;15.52;76.55
71057;BME280;58380;48.312;9.246;2022-08-06T08:22:05;94301.56;;;15.68;76.71
71057;BME280;58380;48.312;9.246;2022-08-06T08:24:40;94369.56;;;16.15;75.37
71057;BME280;58380;48.312;9.246;2022-08-06T08:27:11;94367.41;;;16.17;74.65
71057;BME280;58380;48.312;9.246;2022-08-06T08:29:41;94307.84;;;16.03;74.67
71057;BME280;58380;48.312;9.246;2022-08-06T08:32:10;94309.06;;;16.21;75.55
71057;BME280;58380;48.312;9.246;2022-08-06T08:34:39;94362.56;;;16.69;73.57
71057;BME280;58380;48.312;9.246;2022-08-06T08:37:08;94301.38;;;16.53;73.51
71057;BME280;58380;48.312;9.246;2022-08-06T08:39:39;94347.66;;;17.02;73.22
71057;BME280;58380;48.312;9.246;2022-08-06T08:42:10;94323.06;;;16.76;72.54
71057;BME280;58380;48.312;9.246;2022-08-06T08:44:46;94338.22;;;16.86;73.10
71057;BME280;58380;48.312;9.246;2022-08-06T08:47:20;94344.81;;;16.93;73.20
71057;BME280;58380;48.312;9.246;2022-08-06T08:49:52;94338.47;;;16.84;72.38
71057;BME280;58380;48.312;9.246;2022-08-06T08:52:32;94290.59;;;16.69;72.60
71057;BME280;58380;48.312;9.246;2022-08-06T08:55:06;94295.16;;;16.63;69.42
71057;BME280;58380;48.312;9.246;2022-08-06T08:57:41;94301.34;;;16.58;72.35
71057;BME280;58380;48.312;9.246;2022-08-06T09:00:11;94368.69;;;17.09;72.65
71057;BME280;58380;48.312;9.246;2022-08-06T09:02:40;94304.13;;;16.77;71.46
71057;BME280;58380;48.312;9.246;2022-08-06T09:05:10;94307.41;;;16.64;70.15
71057;BME280;58380;48.312;9.246;2022-08-06T09:07:39;94356.00;;;16.95;70.20
71057;BME280;58380;48.312;9.246;2022-08-06T09:10:11;94324.69;;;16.72;71.72
71057;BME280;58380;48.312;9.246;2022-08-06T09:12:40;94375.97;;;16.98;71.76
71057;BME280;58380;48.312;9.246;2022-08-06T09:15:10;94355.88;;;16.71;70.99
71057;BME280;58380;48.312;9.246;2022-08-06T09:17:38;94342.84;;;16.65;72.83
71057;BME280;58380;48.312;9.246;2022-08-06T09:20:08;94337.66;;;16.44;73.53
71057;BME280;58380;48.312;9.246;2022-08-06T09:22:37;94335.78;;;16.45;72.71
71057;BME280;58380;48.312;9.246;2022-08-06T09:25:34;94351.41;;;16.61;72.62
71057;BME280;58380;48.312;9.246;2022-08-06T09:28:08;94361.69;;;16.84;71.80
71057;BME280;58380;48.312;9.246;2022-08-06T09:30:39;94356.56;;;16.87;72.17
71057;BME280;58380;48.312;9.246;2022-08-06T09:33:11;94374.81;;;17.09;70.29
71057;BME280;58380;48.312;9.246;2022-08-06T09:35:40;94338.66;;;16.98;72.74
71057;BME280;58380;48.312;9.246;2022-08-06T09:38:09;94381.94;;;17.19;71.08
71057;BME280;58380;48.312;9.246;2022-08-06T09:40:41;94327.81;;;16.84;70.87
71057;BME280;58380;48.312;9.246;2022-08-06T09:43:25;94384.34;;;17.20;70.62
71057;BME280;58380;48.312;9.246;2022-08-06T09:45:54;94393.03;;;17.31;70.48
71057;BME280;58380;48.312;9.246;2022-08-06T09:48:23;94380.44;;;17.37;69.55
71057;BME280;58380;48.312;9.246;2022-08-06T09:50:51;94392.72;;;17.38;69.86
71057;BME280;58380;48.312;9.246;2022-08-06T09:53:20;94387.59;;;17.41;69.59
71057;BME280;58380;48.312;9.246;2022-08-06T09:55:53;94323.84;;;17.11;69.95
71057;BME280;58380;48.312;9.246;2022-08-06T09:58:27;94391.19;;;17.56;67.35
71057;BME280;58380;48.312;9.246;2022-08-06T10:01:10;94383.66;;;17.63;67.08
71057;BME280;58380;48.312;9.246;2022-08-06T10:03:40;94381.09;;;17.77;68.47
71057;BME280;58380;48.312;9.246;2022-08-06T10:06:11;94381.78;;;17.93;68.92
71057;BME280;58380;48.312;9.246;2022-08-06T10:08:43;94388.06;;;18.02;66.75
71057;BME280;58380;48.312;9.246;2022-08-06T10:11:14;94370.22;;;17.97;67.20
71057;BME280;58380;48.312;9.246;2022-08-06T10:14:00;94389.00;;;18.11;66.08
71057;BME280;58380;48.312;9.246;2022-08-06T10:16:30;94388.38;;;18.19;66.16
71057;BME280;58380;48.312;9.246;2022-08-06T10:18:59;94351.09;;;17.90;65.99
71057;BME280;58380;48.312;9.246;2022-08-06T10:21:33;94387.38;;;18.15;63.69
71057;BME280;58380;48.312;9.246;2022-08-06T10:24:03;94382.66;;;18.07;64.17
71057;BME280;58380;48.312;9.246;2022-08-06T10:26:36;94392.47;;;18.11;66.01
71057;BME280;58380;48.312;9.246;2022-08-06T10:29:06;61853.94;;;-146.86;100.00
71057;BME280;58380;48.312;9.246;2022-08-06T10:31:36;61853.94;;;-146.86;100.00
71057;BME280;58380;48.312;9.246;2022-08-06T10:34:09;61853.94;;;-146.86;100.00
71057;BME280;58380;48.312;9.246;2022-08-06T10:36:41;61853.94;;;-146.86;100.00
71057;BME280;58380;48.312;9.246;2022-08-06T10:42:00;61853.94;;;-146.86;100.00
71057;BME280;58380;48.312;9.246;2022-08-06T10:44:31;61853.94;;;-146.86;100.00
71057;BME280;58380;48.312;9.246;2022-08-06T10:47:02;61853.94;;;-146.86;100.00
71057;BME280;58380;48.312;9.246;2022-08-06T10:49:34;61853.94;;;-146.86;100.00
71057;BME280;58380;48.312;9.246;2022-08-06T10:52:04;61853.94;;;-146.86;100.00
71057;BME280;58380;48.312;9.246;2022-08-06T10:54:35;61853.94;;;-146.86;100.00
71057;BME280;58380;48.312;9.246;2022-08-06T10:57:08;61853.94;;;-146.86;100.00
71057;BME280;58380;48.312;9.246;2022-08-06T10:59:38;61853.94;;;-146.86;100.00
71057;BME280;58380;48.312;9.246;2022-08-06T11:02:16;61853.94;;;-146.86;100.00
71057;BME280;58380;48.312;9.246;2022-08-06T11:04:49;61853.94;;;-146.86;100.00
71057;BME280;58380;48.312;9.246;2022-08-06T11:07:52;61853.94;;;-146.86;100.00
71057;BME280;58380;48.312;9.246;2022-08-06T11:10:46;61853.94;;;-146.86;100.00
71057;BME280;58380;48.312;9.246;2022-08-06T11:13:29;61853.94;;;-146.86;100.00
71057;BME280;58380;48.312;9.246;2022-08-06T11:15:58;61853.94;;;-146.86;100.00
71057;BME280;58380;48.312;9.246;2022-08-06T11:18:27;61853.94;;;-146.86;100.00
71057;BME280;58380;48.312;9.246;2022-08-06T11:20:58;61853.94;;;-146.86;100.00
71057;BME280;58380;48.312;9.246;2022-08-06T11:24:01;61853.94;;;-146.86;100.00
71057;BME280;58380;48.312;9.246;2022-08-06T11:26:45;61853.94;;;-146.86;100.00
71057;BME280;58380;48.312;9.246;2022-08-06T11:29:29;61853.94;;;-146.86;100.00
71057;BME280;58380;48.312;9.246;2022-08-06T11:31:58;61853.94;;;-146.86;100.00
71057;BME280;58380;48.312;9.246;2022-08-06T11:34:46;61853.94;;;-146.86;100.00
71057;BME280;58380;48.312;9.246;2022-08-06T11:37:46;61853.94;;;-146.86;100.00
71057;BME280;58380;48.312;9.246;2022-08-06T11:40:15;61853.94;;;-146.86;100.00
71057;BME280;58380;48.312;9.246;2022-08-06T11:42:46;61853.94;;;-146.86;100.00
71057;BME280;58380;48.312;9.246;2022-08-06T11:51:53;61853.94;;;-146.86;100.00
71057;BME280;58380;48.312;9.246;2022-08-06T11:54:26;61853.94;;;-146.86;100.00
71057;BME280;58380;48.312;9.246;2022-08-06T11:57:37;61853.94;;;-146.86;100.00
71057;BME280;58380;48.312;9.246;2022-08-06T12:00:24;61853.94;;;-146.86;100.00
71057;BME280;58380;48.312;9.246;2022-08-06T12:03:14;61853.94;;;-146.86;100.00
71057;BME280;58380;48.312;9.246;2022-08-06T12:06:22;61853.94;;;-146.86;100.00
71057;BME280;58380;48.312;9.246;2022-08-06T12:09:09;61853.94;;;-146.86;100.00
71057;BME280;58380;48.312;9.246;2022-08-06T12:11:44;61853.94;;;-146.86;100.00
71057;BME280;58380;48.312;9.246;2022-08-06T12:14:46;61853.94;;;-146.86;100.00
71057;BME280;58380;48.312;9.246;2022-08-06T12:17:16;61853.94;;;-146.86;100.00
71057;BME280;58380;48.312;9.246;2022-08-06T12:19:48;61853.94;;;-146.86;100.00
71057;BME280;58380;48.312;9.246;2022-08-06T12:22:21;61853.94;;;-146.86;100.00
71057;BME280;58380;48.312;9.246;2022-08-06T12:25:06;61853.94;;;-146.86;100.00
71057;BME280;58380;48.312;9.246;2022-08-06T12:27:36;61853.94;;;-146.86;100.00
71057;BME280;58380;48.312;9.246;2022-08-06T12:30:12;61853.94;;;-146.86;100.00
71057;BME280;58380;48.312;9.246;2022-08-06T12:32:42;61853.94;;;-146.86;100.00
71057;BME280;58380;48.312;9.246;2022-08-06T12:35:14;61853.94;;;-146.86;100.00
71057;BME280;58380;48.312;9.246;2022-08-06T12:37:45;94347.25;;;19.56;58.55
71057;BME280;58380;48.312;9.246;2022-08-06T12:40:19;61853.94;;;-146.86;100.00
71057;BME280;58380;48.312;9.246;2022-08-06T12:43:12;61853.94;;;-146.86;100.00
71057;BME280;58380;48.312;9.246;2022-08-06T12:45:42;94308.75;;;19.66;59.32
71057;BME280;58380;48.312;9.246;2022-08-06T12:48:12;94203.84;;;19.09;58.88
71057;BME280;58380;48.312;9.246;2022-08-06T12:50:42;61853.94;;;-146.86;100.00
71057;BME280;58380;48.312;9.246;2022-08-06T12:53:13;61853.94;;;-146.86;100.00
71057;BME280;58380;48.312;9.246;2022-08-06T12:55:46;61853.94;;;-146.86;100.00
71057;BME280;58380;48.312;9.246;2022-08-06T12:58:18;61853.94;;;-146.86;100.00
71057;BME280;58380;48.312;9.246;2022-08-06T13:00:49;61853.94;;;-146.86;100.00
71057;BME280;58380;48.312;9.246;2022-08-06T13:03:21;61853.94;;;-146.86;100.00
71057;BME280;58380;48.312;9.246;2022-08-06T13:05:52;61853.94;;;-146.86;100.00
71057;BME280;58380;48.312;9.246;2022-08-06T13:08:22;61853.94;;;-146.86;100.00
71057;BME280;58380;48.312;9.246;2022-08-06T13:10:56;94326.78;;;20.80;57.06
71057;BME280;58380;48.312;9.246;2022-08-06T13:13:37;61853.94;;;-146.86;100.00
71057;BME280;58380;48.312;9.246;2022-08-06T13:16:08;61853.94;;;-146.86;100.00
71057;BME280;58380;48.312;9.246;2022-08-06T13:18:38;61853.94;;;-146.86;100.00
71057;BME280;58380;48.312;9.246;2022-08-06T13:21:20;61853.94;;;-146.86;100.00
71057;BME280;58380;48.312;9.246;2022-08-06T13:23:50;61853.94;;;-146.86;100.00
71057;BME280;58380;48.312;9.246;2022-08-06T13:26:24;61853.94;;;-146.86;100.00
71057;BME280;58380;48.312;9.246;2022-08-06T13:29:09;61853.94;;;-146.86;100.00
71057;BME280;58380;48.312;9.246;2022-08-06T13:31:42;61853.94;;;-146.86;100.00
71057;BME280;58380;48.312;9.246;2022-08-06T13:34:14;61853.94;;;-146.86;100.00
71057;BME280;58380;48.312;9.246;2022-08-06T13:36:53;61853.94;;;-146.86;100.00
71057;BME280;58380;48.312;9.246;2022-08-06T13:39:25;61853.94;;;-146.86;100.00
71057;BME280;58380;48.312;9.246;2022-08-06T13:42:06;61853.94;;;-146.86;100.00
71057;BME280;58380;48.312;9.246;2022-08-06T13:44:38;61853.94;;;-146.86;100.00
71057;BME280;58380;48.312;9.246;2022-08-06T13:47:09;61853.94;;;-146.86;100.00
71057;BME280;58380;48.312;9.246;2022-08-06T13:49:42;61853.94;;;-146.86;100.00
71057;BME280;58380;48.312;9.246;2022-08-06T13:52:12;61853.94;;;-146.86;100.00
71057;BME280;58380;48.312;9.246;2022-08-06T13:54:41;61853.94;;;-146.86;100.00
71057;BME280;58380;48.312;9.246;2022-08-06T13:57:13;61853.94;;;-146.86;100.00
71057;BME280;58380;48.312;9.246;2022-08-06T13:59:42;61853.94;;;-146.86;100.00
71057;BME280;58380;48.312;9.246;2022-08-06T14:02:11;61853.94;;;-146.86;100.00
71057;BME280;58380;48.312;9.246;2022-08-06T14:04:41;61853.94;;;-146.86;100.00
71057;BME280;58380;48.312;9.246;2022-08-06T14:07:10;61853.94;;;-146.86;100.00
71057;BME280;58380;48.312;9.246;2022-08-06T14:09:40;61853.94;;;-146.86;100.00
71057;BME280;58380;48.312;9.246;2022-08-06T14:12:13;61853.94;;;-146.86;100.00
71057;BME280;58380;48.312;9.246;2022-08-06T14:14:42;61853.94;;;-146.86;100.00
71057;BME280;58380;48.312;9.246;2022-08-06T14:17:10;61853.94;;;-146.86;100.00
71057;BME280;58380;48.312;9.246;2022-08-06T14:19:39;61853.94;;;-146.86;100.00
71057;BME280;58380;48.312;9.246;2022-08-06T14:22:10;61853.94;;;-146.86;100.00
71057;BME280;58380;48.312;9.246;2022-08-06T14:24:41;61853.94;;;-146.86;100.00
71057;BME280;58380;48.312;9.246;2022-08-06T14:27:13;61853.94;;;-146.86;100.00
71057;BME280;58380;48.312;9.246;2022-08-06T14:29:42;61853.94;;;-146.86;100.00
71057;BME280;58380;48.312;9.246;2022-08-06T14:32:11;61853.94;;;-146.86;100.00
71057;BME280;58380;48.312;9.246;2022-08-06T14:34:40;61853.94;;;-146.86;100.00
71057;BME280;58380;48.312;9.246;2022-08-06T14:37:11;94215.78;;;19.94;56.60
71057;BME280;58380;48.312;9.246;2022-08-06T14:39:40;94289.22;;;20.43;56.74
71057;BME280;58380;48.312;9.246;2022-08-06T14:42:09;94133.66;;;19.12;55.85
71057;BME280;58380;48.312;9.246;2022-08-06T14:44:56;94242.69;;;19.61;56.80
71057;BME280;58380;48.312;9.246;2022-08-06T14:47:30;94261.53;;;19.98;55.82
71057;BME280;58380;48.312;9.246;2022-08-06T14:49:58;94190.13;;;19.66;55.75
71057;BME280;58380;48.312;9.246;2022-08-06T14:52:27;94234.09;;;20.15;55.99
71057;BME280;58380;48.312;9.246;2022-08-06T14:54:56;94120.44;;;19.57;55.88
71057;BME280;58380;48.312;9.246;2022-08-06T14:57:28;94209.41;;;20.04;56.11
71057;BME280;58380;48.312;9.246;2022-08-06T14:59:59;94249.38;;;20.14;54.64
71057;BME280;58380;48.312;9.246;2022-08-06T15:02:28;94180.81;;;19.63;54.63
71057;BME280;58380;48.312;9.246;2022-08-06T15:04:58;94243.94;;;20.06;56.14
71057;BME280;58380;48.312;9.246;2022-08-06T15:07:26;94182.78;;;19.71;55.80
71057;BME280;58380;48.312;9.246;2022-08-06T15:09:55;94275.25;;;20.33;53.26
71057;BME280;58380;48.312;9.246;2022-08-06T15:12:24;94266.69;;;19.94;55.13
71057;BME280;58380;48.312;9.246;2022-08-06T15:14:55;94185.22;;;19.45;54.75
71057;BME280;58380;48.312;9.246;2022-08-06T15:17:26;94142.38;;;19.31;56.64
71057;BME280;58380;48.312;9.246;2022-08-06T15:19:55;94112.31;;;19.34;56.83
71057;BME280;58380;48.312;9.246;2022-08-06T15:22:27;94100.84;;;19.34;56.16
71057;BME280;58380;48.312;9.246;2022-08-06T15:24:56;94130.63;;;19.69;53.65
71057;BME280;58380;48.312;9.246;2022-08-06T15:27:33;94215.03;;;20.16;52.40
71057;BME280;58380;48.312;9.246;2022-08-06T15:30:06;94240.41;;;20.33;55.11
71057;BME280;58380;48.312;9.246;2022-08-06T15:32:38;94276.47;;;20.49;54.28
71057;BME280;58380;48.312;9.246;2022-08-06T15:35:08;94213.09;;;20.31;52.01
71057;BME280;58380;48.312;9.246;2022-08-06T15:37:37;94260.41;;;20.72;54.64
71057;BME280;58380;48.312;9.246;2022-08-06T15:40:07;94230.34;;;20.38;50.81
71057;BME280;58380;48.312;9.246;2022-08-06T15:42:37;94254.09;;;20.54;52.04
71057;BME280;58380;48.312;9.246;2022-08-06T15:45:09;94207.34;;;20.23;50.14
71057;BME280;58380;48.312;9.246;2022-08-06T15:47:39;94221.91;;;20.31;51.78
71057;BME280;58380;48.312;9.246;2022-08-06T15:50:08;94217.34;;;20.32;49.98
71057;BME280;58380;48.312;9.246;2022-08-06T15:52:37;94236.63;;;20.56;51.21
71057;BME280;58380;48.312;9.246;2022-08-06T15:55:06;94253.25;;;21.12;50.07
71057;BME280;58380;48.312;9.246;2022-08-06T15:57:35;94216.41;;;21.04;50.22
71057;BME280;58380;48.312;9.246;2022-08-06T16:00:08;94245.56;;;21.28;48.94
71057;BME280;58380;48.312;9.246;2022-08-06T16:02:37;94223.66;;;21.03;49.38
71057;BME280;58380;48.312;9.246;2022-08-06T16:05:07;94239.50;;;21.14;48.93
71057;BME280;58380;48.312;9.246;2022-08-06T16:07:35;94196.16;;;20.66;49.33
71057;BME280;58380;48.312;9.246;2022-08-06T16:10:05;94164.03;;;20.30;50.89
71057;BME280;58380;48.312;9.246;2022-08-06T16:12:38;94215.91;;;20.71;49.99
71057;BME280;58380;48.312;9.246;2022-08-06T16:15:14;94241.94;;;20.93;51.46
71057;BME280;58380;48.312;9.246;2022-08-06T16:17:42;94234.72;;;21.02;49.18
71057;BME280;58380;48.312;9.246;2022-08-06T16:20:12;94226.75;;;20.88;49.92
71057;BME280;58380;48.312;9.246;2022-08-06T16:22:41;94172.22;;;20.79;49.61
71057;BME280;58380;48.312;9.246;2022-08-06T16:25:10;94221.84;;;21.21;50.33
71057;BME280;58380;48.312;9.246;2022-08-06T16:27:41;94203.94;;;20.99;49.13
71057;BME280;58380;48.312;9.246;2022-08-06T16:30:13;94068.38;;;19.86;49.66
71057;BME280;58380;48.312;9.246;2022-08-06T16:32:41;94229.63;;;20.69;48.55
71057;BME280;58380;48.312;9.246;2022-08-06T16:35:10;94206.53;;;20.37;48.29
71057;BME280;58380;48.312;9.246;2022-08-06T16:37:39;94099.00;;;19.57;50.82
71057;BME280;58380;48.312;9.246;2022-08-06T16:40:09;94203.63;;;20.11;49.59
71057;BME280;58380;48.312;9.246;2022-08-06T16:42:38;94236.44;;;20.30;51.23
71057;BME280;58380;48.312;9.246;2022-08-06T16:45:08;94231.81;;;20.22;49.28
71057;BME280;58380;48.312;9.246;2022-08-06T16:47:43;94242.31;;;20.18;52.57
71057;BME280;58380;48.312;9.246;2022-08-06T16:50:12;94216.75;;;20.12;51.33
71057;BME280;58380;48.312;9.246;2022-08-06T16:52:41;94153.22;;;19.76;51.64
71057;BME280;58380;48.312;9.246;2022-08-06T16:55:10;94114.59;;;19.55;51.42
71057;BME280;58380;48.312;9.246;2022-08-06T16:57:39;94126.88;;;19.56;51.10
71057;BME280;58380;48.312;9.246;2022-08-06T17:00:10;94221.78;;;20.14;51.36
71057;BME280;58380;48.312;9.246;2022-08-06T17:02:44;94177.91;;;19.87;51.48
71057;BME280;58380;48.312;9.246;2022-08-06T17:05:15;94176.25;;;19.77;51.57
71057;BME280;58380;48.312;9.246;2022-08-06T17:07:49;94196.56;;;19.78;51.30
71057;BME280;58380;48.312;9.246;2022-08-06T17:10:17;94136.41;;;19.34;51.49
71057;BME280;58380;48.312;9.246;2022-08-06T17:12:55;94171.22;;;19.48;52.04
71057;BME280;58380;48.312;9.246;2022-08-06T17:15:24;94193.69;;;19.61;51.14
71057;BME280;58380;48.312;9.246;2022-08-06T17:17:55;94201.25;;;19.59;52.36
71057;BME280;58380;48.312;9.246;2022-08-06T17:20:24;94121.88;;;19.13;53.29
71057;BME280;58380;48.312;9.246;2022-08-06T17:22:56;94240.63;;;19.58;54.98
71057;BME280;58380;48.312;9.246;2022-08-06T17:25:27;94228.72;;;19.51;56.83
71057;BME280;58380;48.312;9.246;2022-08-06T17:27:56;94132.28;;;18.87;57.85
71057;BME280;58380;48.312;9.246;2022-08-06T17:30:40;94043.59;;;18.10;59.72
71057;BME280;58380;48.312;9.246;2022-08-06T17:33:14;94228.91;;;19.27;59.74
71057;BME280;58380;48.312;9.246;2022-08-06T17:35:45;94125.31;;;18.58;60.38
71057;BME280;58380;48.312;9.246;2022-08-06T17:38:14;94195.00;;;18.94;61.16
71057;BME280;58380;48.312;9.246;2022-08-06T17:40:43;94230.09;;;19.07;61.03
71057;BME280;58380;48.312;9.246;2022-08-06T17:43:11;94147.09;;;18.51;62.14
71057;BME280;58380;48.312;9.246;2022-08-06T17:45:40;94228.63;;;19.01;62.39
71057;BME280;58380;48.312;9.246;2022-08-06T17:48:08;94182.84;;;18.69;61.65
71057;BME280;58380;48.312;9.246;2022-08-06T17:50:40;94141.41;;;18.39;62.21
71057;BME280;58380;48.312;9.246;2022-08-06T17:53:09;94215.38;;;18.77;61.72
71057;BME280;58380;48.312;9.246;2022-08-06T17:55:39;94209.03;;;18.72;61.97
71057;BME280;58380;48.312;9.246;2022-08-06T17:58:11;94234.44;;;18.89;62.14
71057;BME280;58380;48.312;9.246;2022-08-06T18:00:41;94174.00;;;18.41;62.53
71057;BME280;58380;48.312;9.246;2022-08-06T18:03:10;94143.91;;;18.17;63.38
71057;BME280;58380;48.312;9.246;2022-08-06T18:05:41;94239.00;;;18.69;62.58
71057;BME280;58380;48.312;9.246;2022-08-06T18:08:12;94246.06;;;18.65;63.05
71057;BME280;58380;48.312;9.246;2022-08-06T18:10:41;94218.66;;;18.22;63.77
71057;BME280;58380;48.312;9.246;2022-08-06T18:13:10;94119.41;;;17.39;64.14
71057;BME280;58380;48.312;9.246;2022-08-06T18:15:48;94250.53;;;18.18;64.64
71057;BME280;58380;48.312;9.246;2022-08-06T18:22:40;94198.94;;;17.61;66.34
71057;BME280;58380;48.312;9.246;2022-08-06T18:33:32;94207.72;;;17.42;67.09
71057;BME280;58380;48.312;9.246;2022-08-06T18:36:57;94171.50;;;17.12;67.46
71057;BME280;58380;48.312;9.246;2022-08-06T18:40:38;94163.94;;;17.00;66.89
71057;BME280;58380;48.312;9.246;2022-08-06T18:47:09;94280.19;;;17.74;67.73
71057;BME280;58380;48.312;9.246;2022-08-06T19:04:40;94193.38;;;16.90;68.46
71057;BME280;58380;48.312;9.246;2022-08-06T19:14:38;94183.69;;;16.70;69.49
71057;BME280;58380;48.312;9.246;2022-08-06T19:21:34;94272.50;;;17.00;70.43
71057;BME280;58380;48.312;9.246;2022-08-06T19:24:45;94167.88;;;16.21;71.06
71057;BME280;58380;48.312;9.246;2022-08-06T19:31:05;94167.41;;;16.13;72.15
71057;BME280;58380;48.312;9.246;2022-08-06T19:52:44;94273.72;;;16.05;77.37
71057;BME280;58380;48.312;9.246;2022-08-06T19:55:51;94178.56;;;15.26;77.74
71057;BME280;58380;48.312;9.246;2022-08-06T19:58:40;94221.81;;;15.47;78.64
71057;BME280;58380;48.312;9.246;2022-08-06T20:09:03;94237.31;;;15.35;79.08
71057;BME280;58380;48.312;9.246;2022-08-06T20:11:59;94267.50;;;15.65;78.94
71057;BME280;58380;48.312;9.246;2022-08-06T20:15:10;94224.84;;;15.30;79.15
71057;BME280;58380;48.312;9.246;2022-08-06T20:19:25;94162.50;;;14.82;79.74
71057;BME280;58380;48.312;9.246;2022-08-06T20:21:54;94168.94;;;14.71;80.28
71057;BME280;58380;48.312;9.246;2022-08-06T20:25:09;94181.97;;;14.57;80.62
71057;BME280;58380;48.312;9.246;2022-08-06T20:28:04;94223.94;;;14.75;81.46
71057;BME280;58380;48.312;9.246;2022-08-06T20:30:38;94167.63;;;14.32;81.78
